Time;durP1;ratioP1;P1;durP2;ratioP2;P2;SDS_P1;SDS_P2;PMS_P1;PMS_P2;Temp;Humidity;BMP_temperature;BMP_pressure;BME280_temperature;BME280_humidity;BME280_pressure;Samples;Min_cycle;Max_cycle;Signal;HPM_P1;HPM_P2
2021/12/17 14:57:23;;;;;;;17.92;7.05;;;;;;;3.62;78.72;100172.41;4842792;29;20541;-53
2021/12/17 15:04:43;;;;;;;13.95;7.22;;;;;;;3.82;77.39;100165.31;4843015;29;20041;-52
2021/12/17 15:07:08;;;;;;;12.85;6.65;;;;;;;3.87;77.32;100165.25;4843614;29;20049;-48
2021/12/17 15:09:36;;;;;;;14.43;7.07;;;;;;;3.79;77.39;100167.91;4841550;29;20049;-48
2021/12/17 15:12:12;;;;;;;16.45;8.25;;;;;;;3.76;77.36;100160.16;4841855;29;20030;-51
2021/12/17 15:14:37;;;;;;;15.13;7.50;;;;;;;3.81;76.52;100161.81;4842444;29;20232;-51
2021/12/17 15:17:04;;;;;;;15.75;7.68;;;;;;;3.76;77.19;100166.22;4844032;29;20110;-50
2021/12/17 15:19:30;;;;;;;13.27;7.03;;;;;;;3.74;77.43;100146.31;4848444;29;20459;-52
2021/12/17 15:21:55;;;;;;;12.82;6.80;;;;;;;3.86;76.78;100156.59;4841822;29;20038;-51
2021/12/17 15:24:20;;;;;;;14.27;7.30;;;;;;;3.78;77.10;100155.78;4847025;29;20082;-53
2021/12/17 15:26:46;;;;;;;14.98;8.27;;;;;;;3.72;77.43;100153.28;4841603;29;20026;-54
2021/12/17 15:29:11;;;;;;;14.80;8.32;;;;;;;3.85;77.33;100160.03;4841516;29;20101;-52
2021/12/17 15:31:36;;;;;;;15.52;8.10;;;;;;;3.72;77.79;100154.13;4843302;29;20030;-49
2021/12/17 15:34:02;;;;;;;15.32;8.43;;;;;;;3.65;78.23;100156.78;4844808;29;20030;-52
2021/12/17 15:36:27;;;;;;;15.85;8.25;;;;;;;3.64;77.74;100160.25;4841506;29;20041;-50
2021/12/17 15:38:53;;;;;;;15.45;8.18;;;;;;;3.79;77.18;100167.91;4841635;29;20045;-54
2021/12/17 15:41:18;;;;;;;15.48;7.88;;;;;;;3.53;78.41;100158.63;4842614;29;20025;-54
2021/12/17 15:43:44;;;;;;;15.85;8.15;;;;;;;3.79;77.58;100170.53;4842482;29;20430;-52
2021/12/17 15:46:09;;;;;;;14.80;7.68;;;;;;;3.75;78.08;100151.53;4843446;29;20029;-55
2021/12/17 15:48:34;;;;;;;14.45;8.10;;;;;;;3.85;77.21;100159.19;4843853;29;20066;-53
2021/12/17 15:51:02;;;;;;;16.15;8.13;;;;;;;3.75;77.03;100155.81;4842543;29;20403;-51
2021/12/17 15:53:27;;;;;;;14.75;8.65;;;;;;;3.95;76.50;100158.22;4841966;29;20030;-50
2021/12/17 15:55:52;;;;;;;15.45;7.80;;;;;;;3.77;77.34;100156.69;4842231;29;20052;-52
2021/12/17 15:58:18;;;;;;;16.27;7.95;;;;;;;3.72;77.71;100163.66;4841663;29;20032;-53
2021/12/17 16:00:43;;;;;;;15.70;8.13;;;;;;;3.69;78.07;100161.09;4824624;29;20061;-52
2021/12/17 16:03:09;;;;;;;17.02;8.55;;;;;;;3.83;77.39;100154.03;4824909;29;20091;-49
2021/12/17 16:05:35;;;;;;;14.15;8.13;;;;;;;3.83;76.58;100156.63;4824991;29;20026;-52
2021/12/17 16:08:01;;;;;;;15.77;8.57;;;;;;;3.65;77.06;100156.78;4827111;29;20030;-50
2021/12/17 16:21:07;;;;;;;18.70;9.60;;;;;;;3.72;78.55;100179.25;4853912;29;20050;-52
2021/12/17 16:23:36;;;;;;;17.15;9.45;;;;;;;3.86;78.18;100179.09;4849941;29;20026;-53
2021/12/17 16:26:01;;;;;;;17.25;8.52;;;;;;;3.86;77.65;100179.97;4845218;29;20117;-52
2021/12/17 16:28:28;;;;;;;15.77;9.30;;;;;;;3.86;77.86;100182.56;4844823;29;20029;-50
2021/12/17 16:31:05;;;;;;;18.27;9.75;;;;;;;3.74;78.77;100183.53;4843819;29;20182;-54
2021/12/17 16:33:31;;;;;;;16.83;9.02;;;;;;;3.92;77.68;100176.44;4844767;29;20025;-53
2021/12/17 16:35:59;;;;;;;16.70;9.73;;;;;;;3.76;78.39;100165.34;4846834;29;20487;-50
2021/12/17 16:38:25;;;;;;;16.08;8.88;;;;;;;3.99;77.02;100176.38;4848655;29;20045;-51
2021/12/17 16:40:51;;;;;;;20.70;11.32;;;;;;;4.05;76.09;100163.28;4849265;29;20026;-53
2021/12/17 16:43:16;;;;;;;19.80;10.60;;;;;;;3.97;76.35;100165.13;4844489;29;20030;-53
2021/12/17 16:45:52;;;;;;;18.05;9.80;;;;;;;3.80;77.63;100161.84;4843953;29;20106;-52
2021/12/17 16:48:17;;;;;;;16.88;9.60;;;;;;;3.80;76.67;100154.91;4843705;29;20026;-51
2021/12/17 16:50:42;;;;;;;17.27;9.43;;;;;;;3.71;77.35;100157.59;4843752;29;20058;-51
2021/12/17 16:53:08;;;;;;;17.88;9.05;;;;;;;3.67;77.17;100144.66;4843884;29;20030;-50
2021/12/17 16:55:33;;;;;;;16.05;8.68;;;;;;;3.91;75.40;100154.81;4843481;29;20034;-54
2021/12/17 16:57:59;;;;;;;20.92;11.10;;;;;;;3.94;75.98;100154.78;4848418;29;20038;-54
2021/12/17 17:00:24;;;;;;;15.77;8.75;;;;;;;4.00;75.09;100156.47;4851473;29;20406;-51
2021/12/17 17:02:53;;;;;;;14.75;8.95;;;;;;;3.88;76.15;100157.41;4850943;29;20093;-53
2021/12/17 17:05:19;;;;;;;15.35;8.15;;;;;;;4.03;75.23;100164.22;4850830;29;20545;-51
2021/12/17 17:07:44;;;;;;;19.90;11.05;;;;;;;4.00;76.13;100167.69;4846085;29;20579;-52
2021/12/17 17:10:11;;;;;;;17.98;10.38;;;;;;;4.07;75.91;100172.84;4846810;29;20034;-50
2021/12/17 17:12:39;;;;;;;17.67;9.88;;;;;;;3.98;76.33;100176.38;4844541;29;20561;-52
2021/12/17 17:15:05;;;;;;;17.55;10.40;;;;;;;4.00;76.41;100174.63;4836696;29;20038;-54
2021/12/17 17:17:30;;;;;;;16.13;9.63;;;;;;;3.97;76.12;100172.06;4838576;29;20022;-51
2021/12/17 17:19:56;;;;;;;39.80;28.73;;;;;;;4.09;74.98;100174.50;4846513;29;20386;-47
2021/12/17 17:22:21;;;;;;;18.73;11.95;;;;;;;4.17;74.70;100161.47;4846950;29;20040;-49
2021/12/17 17:24:46;;;;;;;21.25;10.93;;;;;;;3.93;76.94;100168.63;4849385;29;20025;-53
2021/12/17 17:27:12;;;;;;;19.92;10.98;;;;;;;3.77;76.79;100170.50;4844696;29;20034;-51
2021/12/17 17:29:37;;;;;;;19.48;10.55;;;;;;;3.81;76.57;100158.38;4844146;29;20134;-53
2021/12/17 17:32:04;;;;;;;18.67;9.55;;;;;;;3.96;74.88;100168.59;4844140;29;20026;-51
2021/12/17 17:34:29;;;;;;;18.75;9.23;;;;;;;4.04;75.16;100177.16;4843498;29;20038;-50
2021/12/17 17:36:54;;;;;;;20.67;11.00;;;;;;;3.89;75.25;100172.16;4843623;29;20030;-54
2021/12/17 17:39:20;;;;;;;17.63;9.57;;;;;;;3.84;76.12;100173.91;4861294;29;20030;-55
2021/12/17 17:41:45;;;;;;;16.52;9.90;;;;;;;3.62;77.12;100168.06;4845310;29;20509;-51
2021/12/17 17:44:11;;;;;;;16.77;10.10;;;;;;;3.79;76.94;100171.38;4844171;29;20026;-52
2021/12/17 17:46:36;;;;;;;16.42;9.25;;;;;;;3.84;76.93;100158.34;4848882;29;20030;-55
2021/12/17 17:49:02;;;;;;;24.75;13.50;;;;;;;3.78;75.33;100168.78;4847401;29;20037;-51
2021/12/17 17:51:28;;;;;;;26.88;13.50;;;;;;;3.92;74.89;100161.75;4857240;29;20109;-54
2021/12/17 17:53:53;;;;;;;19.00;10.45;;;;;;;3.57;76.76;100162.06;4866586;29;20033;-53
2021/12/17 17:56:18;;;;;;;20.70;11.40;;;;;;;3.33;78.71;100181.28;4850739;29;20041;-54
2021/12/17 17:58:44;;;;;;;19.17;10.65;;;;;;;3.39;77.67;100177.78;4847022;29;20025;-53
2021/12/17 18:01:09;;;;;;;19.80;10.93;;;;;;;3.28;78.31;100177.88;4846576;29;20033;-55
2021/12/17 18:03:35;;;;;;;18.42;11.05;;;;;;;3.27;78.32;100176.16;4848173;29;20046;-50
2021/12/17 18:06:02;;;;;;;27.05;12.68;;;;;;;3.32;77.85;100180.41;4856469;29;20038;-49
2021/12/17 18:08:27;;;;;;;28.95;14.00;;;;;;;3.33;77.85;100173.50;4850492;29;20641;-50
2021/12/17 18:10:53;;;;;;;50.35;21.98;;;;;;;3.16;78.88;100167.56;4850646;29;20062;-49
2021/12/17 18:13:20;;;;;;;21.88;12.48;;;;;;;3.23;78.44;100174.44;4859354;29;20033;-53
2021/12/17 18:15:46;;;;;;;20.98;12.18;;;;;;;3.14;78.50;100174.53;4852260;29;20036;-48
2021/12/17 18:18:14;;;;;;;22.52;13.07;;;;;;;3.30;78.22;100165.72;4851410;29;20029;-52
2021/12/17 18:20:39;;;;;;;19.90;11.23;;;;;;;3.12;79.12;100160.69;4867457;29;20106;-49
2021/12/17 18:23:05;;;;;;;22.15;11.20;;;;;;;3.18;77.91;100168.44;4850846;29;20033;-51
2021/12/17 18:25:31;;;;;;;20.77;11.82;;;;;;;3.32;77.66;100162.25;4848689;29;20419;-50
2021/12/17 18:27:56;;;;;;;19.65;11.07;;;;;;;3.44;77.60;100169.09;4848783;29;20118;-50
2021/12/17 18:30:22;;;;;;;21.13;11.93;;;;;;;3.34;78.09;100170.06;4848417;29;20491;-49
2021/12/17 18:32:53;;;;;;;20.35;12.40;;;;;;;3.24;79.09;100176.19;4851941;29;20157;-51
2021/12/17 18:35:19;;;;;;;19.60;12.27;;;;;;;3.13;79.13;100181.41;4846692;29;20131;-50
2021/12/17 18:37:44;;;;;;;20.65;12.45;;;;;;;3.32;78.95;100189.94;4846597;29;20101;-49
2021/12/17 18:40:20;;;;;;;22.77;12.15;;;;;;;3.25;78.87;100178.75;4847922;29;20097;-52
2021/12/17 18:45:29;;;;;;;22.13;11.98;;;;;;;3.25;79.04;100172.72;4847997;29;20044;-49
2021/12/17 18:47:54;;;;;;;20.85;11.48;;;;;;;3.46;79.00;100177.72;4856684;29;20112;-49
2021/12/17 18:50:20;;;;;;;25.40;13.38;;;;;;;3.46;78.87;100176.84;4848539;29;20062;-50
2021/12/17 18:52:45;;;;;;;20.42;10.68;;;;;;;3.48;78.40;100181.16;4847751;29;20037;-49
2021/12/17 18:55:10;;;;;;;19.35;10.35;;;;;;;3.75;76.74;100174.00;4848361;29;20040;-49
2021/12/17 18:57:36;;;;;;;22.48;10.35;;;;;;;3.53;77.91;100178.53;4850675;29;20032;-52
2021/12/17 19:00:03;;;;;;;19.55;10.23;;;;;;;3.59;77.70;100172.44;4851880;29;20045;-54
2021/12/17 19:02:28;;;;;;;21.98;11.52;;;;;;;3.61;77.83;100186.25;4849869;29;20658;-53
2021/12/17 19:04:53;;;;;;;22.58;11.65;;;;;;;3.53;78.20;100179.38;4849810;29;20097;-55
2021/12/17 19:07:19;;;;;;;22.23;11.32;;;;;;;3.57;77.20;100173.28;4853323;29;20029;-51
2021/12/17 19:09:44;;;;;;;23.40;11.57;;;;;;;3.67;77.27;100181.00;4852546;29;20101;-48
2021/12/17 19:12:10;;;;;;;22.08;10.88;;;;;;;3.60;77.83;100184.53;4852126;29;20033;-49
2021/12/17 19:14:37;;;;;;;23.33;12.57;;;;;;;3.50;78.57;100187.19;4851858;29;20040;-51
2021/12/17 19:17:03;;;;;;;21.38;11.25;;;;;;;3.65;78.07;100187.94;4851857;29;20037;-50
2021/12/17 19:19:38;;;;;;;26.42;13.48;;;;;;;3.61;79.21;100196.63;4853165;29;20037;-49
2021/12/17 19:22:21;;;;;;;25.70;13.60;;;;;;;3.53;79.38;100201.88;4853139;29;20336;-49
2021/12/17 19:24:46;;;;;;;18.48;9.88;;;;;;;3.53;79.38;100205.34;4862707;29;20058;-52
2021/12/17 19:27:12;;;;;;;29.48;14.95;;;;;;;3.76;77.83;100206.88;4865679;29;20031;-53
2021/12/17 19:29:39;;;;;;;48.25;28.75;;;;;;;3.63;78.20;100200.94;4850716;29;20042;-53
2021/12/17 19:32:05;;;;;;;24.70;13.25;;;;;;;3.65;77.66;100208.69;4847271;29;20109;-53
2021/12/17 19:34:30;;;;;;;30.30;15.85;;;;;;;3.63;78.23;100202.66;4843644;29;20089;-50
2021/12/17 19:36:56;;;;;;;20.63;10.48;;;;;;;3.65;77.70;100194.00;4843843;29;20443;-49
2021/12/17 19:39:21;;;;;;;56.90;37.50;;;;;;;3.60;78.67;100193.16;4843171;29;20040;-52
2021/12/17 19:41:46;;;;;;;35.95;22.70;;;;;;;3.60;77.56;100184.53;4844020;29;20101;-55
2021/12/17 19:44:12;;;;;;;32.03;19.42;;;;;;;3.53;78.44;100194.09;4841513;29;20029;-45
2021/12/17 19:46:55;;;;;;;19.55;10.38;;;;;;;3.78;76.56;100190.41;4841865;29;20030;-47
2021/12/17 19:51:46;;;;;;;23.23;13.05;;;;;;;3.64;78.34;100186.22;4841350;29;20089;-51
2021/12/17 19:54:11;;;;;;;33.55;18.83;;;;;;;3.60;78.14;100189.72;4841357;29;20097;-48
2021/12/17 19:56:37;;;;;;;208.55;107.35;;;;;;;3.57;78.24;100201.84;4841748;29;20041;-51
2021/12/17 19:59:02;;;;;;;44.60;25.92;;;;;;;3.72;77.45;100211.25;4844108;29;20037;-49
2021/12/17 20:01:30;;;;;;;18.02;9.80;;;;;;;3.66;77.68;100213.03;4840972;29;20081;-52
2021/12/17 20:03:58;;;;;;;19.38;9.90;;;;;;;3.54;77.39;100207.06;4840035;29;20033;-48
2021/12/17 20:06:24;;;;;;;24.70;13.07;;;;;;;3.65;77.04;100194.00;4841341;29;20078;-51
2021/12/17 20:08:50;;;;;;;20.95;11.43;;;;;;;3.67;77.18;100207.81;4841200;29;20380;-50
2021/12/17 20:11:15;;;;;;;19.52;11.20;;;;;;;3.62;77.53;100203.56;4838627;29;20812;-51
2021/12/17 20:13:41;;;;;;;19.25;9.63;;;;;;;3.60;77.77;100203.53;4839418;29;20038;-48
2021/12/17 20:16:06;;;;;;;19.83;10.88;;;;;;;3.74;77.37;100208.63;4840077;29;20154;-49
2021/12/17 20:18:32;;;;;;;17.10;9.85;;;;;;;3.44;78.51;100209.72;4847999;29;20040;-49
2021/12/17 20:20:57;;;;;;;22.85;14.32;;;;;;;3.42;77.94;100206.31;4841007;29;20082;-51
2021/12/17 20:23:24;;;;;;;18.83;9.50;;;;;;;3.41;78.67;100210.63;4840928;29;20034;-48
2021/12/17 20:25:51;;;;;;;32.17;15.00;;;;;;;3.35;78.88;100202.03;4839873;29;20022;-48
2021/12/17 20:28:17;;;;;;;112.80;49.42;;;;;;;3.33;78.74;100199.44;4857873;29;20054;-52
2021/12/17 20:30:43;;;;;;;77.95;29.13;;;;;;;3.35;78.52;100205.47;4842091;29;20058;-51
2021/12/17 20:33:08;;;;;;;41.05;19.13;;;;;;;3.54;79.16;100212.25;4841307;29;20134;-49
2021/12/17 20:35:34;;;;;;;39.58;18.80;;;;;;;3.64;78.35;100213.03;4836448;29;20046;-51
2021/12/17 20:37:59;;;;;;;28.17;14.68;;;;;;;3.59;78.33;100213.94;4838602;29;20030;-50
2021/12/17 20:40:25;;;;;;;18.73;10.00;;;;;;;3.47;78.50;100213.16;4840279;29;20038;-51
2021/12/17 20:42:58;;;;;;;42.75;20.23;;;;;;;3.53;77.83;100220.91;4840886;29;20046;-48
2021/12/17 20:45:24;;;;;;;23.45;11.30;;;;;;;3.50;78.46;100214.88;4839421;29;20033;-48
2021/12/17 20:47:50;;;;;;;24.98;17.35;;;;;;;3.52;77.65;100193.25;4840890;29;20509;-50
2021/12/17 20:50:15;;;;;;;18.23;11.52;;;;;;;3.43;78.29;100208.88;4840192;29;20038;-48
2021/12/17 20:52:42;;;;;;;19.10;11.10;;;;;;;3.30;79.52;100217.59;4844420;29;20029;-48
2021/12/17 20:55:09;;;;;;;26.38;16.10;;;;;;;3.39;78.09;100207.19;4839389;29;20045;-47
2021/12/17 20:57:35;;;;;;;18.35;10.15;;;;;;;3.42;78.15;100212.34;4843041;29;20058;-52
2021/12/17 21:00:00;;;;;;;18.88;9.88;;;;;;;3.28;77.54;100211.59;4842774;29;20030;-48
2021/12/17 21:02:25;;;;;;;19.90;11.25;;;;;;;3.25;78.01;100203.81;4843942;29;20030;-47
2021/12/17 21:04:51;;;;;;;34.40;14.20;;;;;;;3.31;77.87;100229.72;4843245;29;20033;-48
2021/12/17 21:07:16;;;;;;;25.95;13.32;;;;;;;3.33;78.30;100233.16;4844084;29;20033;-47
2021/12/17 21:09:43;;;;;;;31.30;16.40;;;;;;;3.27;79.80;100222.84;4851973;29;20034;-47
2021/12/17 21:12:09;;;;;;;20.10;10.50;;;;;;;3.54;78.48;100230.44;4859035;29;20026;-48
2021/12/17 21:14:34;;;;;;;19.33;10.05;;;;;;;3.38;79.02;100227.97;4843483;29;20118;-51
2021/12/17 21:17:00;;;;;;;19.42;10.07;;;;;;;3.47;78.65;100233.06;4844157;29;20403;-48
2021/12/17 21:19:26;;;;;;;22.40;11.52;;;;;;;3.38;79.25;100234.00;4843892;29;20046;-48
2021/12/17 21:21:52;;;;;;;18.92;10.85;;;;;;;3.29;79.29;100231.47;4843981;29;20029;-47
2021/12/17 21:24:19;;;;;;;20.20;10.32;;;;;;;3.42;78.56;100237.44;4843491;29;20029;-47
2021/12/17 21:26:45;;;;;;;21.83;10.38;;;;;;;3.48;77.87;100227.00;4843467;29;20034;-50
2021/12/17 21:29:11;;;;;;;119.07;41.35;;;;;;;3.27;78.16;100218.50;4843458;29;20026;-49
2021/12/17 21:31:37;;;;;;;46.10;18.75;;;;;;;3.14;78.83;100218.59;4842211;29;20042;-50
2021/12/17 21:34:03;;;;;;;31.83;14.65;;;;;;;3.24;79.46;100222.88;4841311;29;20034;-51
2021/12/17 21:36:28;;;;;;;23.80;11.52;;;;;;;3.21;79.17;100225.47;4843547;29;20061;-47
2021/12/17 21:38:54;;;;;;;20.58;9.88;;;;;;;3.20;79.66;100229.81;4846550;29;20038;-46
2021/12/17 21:41:20;;;;;;;19.88;10.15;;;;;;;3.47;78.68;100223.53;4846280;29;20486;-49
2021/12/17 21:43:45;;;;;;;19.63;10.05;;;;;;;3.33;78.94;100228.81;4846911;29;20053;-51
2021/12/17 21:46:10;;;;;;;32.90;17.10;;;;;;;3.21;78.65;100228.06;4843403;29;20038;-51
2021/12/17 21:48:36;;;;;;;40.17;16.73;;;;;;;3.32;78.95;100219.31;4841920;29;20699;-51
2021/12/17 21:51:01;;;;;;;25.58;12.18;;;;;;;3.38;78.62;100230.53;4843306;29;20025;-47
2021/12/17 21:53:27;;;;;;;30.20;14.27;;;;;;;3.43;78.83;100224.44;4841610;29;20105;-47
2021/12/17 21:55:52;;;;;;;21.92;11.30;;;;;;;3.50;79.01;100225.25;4843161;29;20033;-49
2021/12/17 21:58:17;;;;;;;35.05;16.73;;;;;;;3.45;79.31;100214.91;4843000;29;20093;-48
2021/12/17 22:00:43;;;;;;;22.33;11.27;;;;;;;3.48;78.58;100214.91;4842785;29;20513;-47
2021/12/17 22:03:08;;;;;;;19.48;9.18;;;;;;;3.55;78.64;100211.38;4842892;29;20045;-46
2021/12/17 22:05:34;;;;;;;18.75;9.65;;;;;;;3.49;78.77;100201.03;4841837;29;20133;-49
2021/12/17 22:08:01;;;;;;;18.15;8.80;;;;;;;3.65;78.24;100209.56;4842361;29;20030;-51
2021/12/17 22:10:26;;;;;;;17.65;8.82;;;;;;;3.53;78.27;100214.84;4842853;29;20037;-51
2021/12/17 22:12:52;;;;;;;20.42;9.23;;;;;;;3.61;77.96;100227.75;4843313;29;20112;-50
2021/12/17 22:15:19;;;;;;;19.02;9.30;;;;;;;3.50;78.88;100228.69;4842536;29;20034;-51
2021/12/17 22:17:44;;;;;;;18.90;9.73;;;;;;;3.51;78.47;100233.03;4857914;29;20133;-49
2021/12/17 22:20:26;;;;;;;17.70;8.75;;;;;;;3.80;77.47;100224.16;4848619;29;20398;-47
2021/12/17 22:22:51;;;;;;;17.73;8.68;;;;;;;3.71;77.56;100213.84;4842939;29;20030;-49
2021/12/17 22:25:17;;;;;;;17.33;8.85;;;;;;;3.51;78.13;100217.47;4839986;29;20395;-54
2021/12/17 22:27:43;;;;;;;17.95;9.10;;;;;;;3.60;77.75;100213.06;4841127;29;20046;-48
2021/12/17 22:30:09;;;;;;;18.55;9.35;;;;;;;3.52;78.60;100221.78;4840260;29;20090;-49
2021/12/17 22:32:34;;;;;;;18.55;9.00;;;;;;;3.57;77.64;100230.38;4842558;29;20071;-49
2021/12/17 22:35:00;;;;;;;18.52;9.05;;;;;;;3.66;77.72;100224.25;4839653;29;20034;-48
2021/12/17 22:37:28;;;;;;;20.25;10.15;;;;;;;3.70;77.65;100227.69;4836042;29;20451;-52
2021/12/17 22:39:53;;;;;;;20.38;10.18;;;;;;;3.40;78.60;100233.97;4840843;29;20026;-50
2021/12/17 22:42:18;;;;;;;19.73;10.63;;;;;;;3.53;78.37;100231.28;4842344;29;20037;-49
